Time;durP1;ratioP1;P1;durP2;ratioP2;P2;SDS_P1;SDS_P2;PMS_P1;PMS_P2;Temp;Humidity;BMP_temperature;BMP_pressure;BME280_temperature;BME280_humidity;BME280_pressure;Samples;Min_cycle;Max_cycle;Signal;HPM_P1;HPM_P2
2022/06/22 00:01:37;;;;;;;8.43;6.32;;;;;;;;;;5307384;28;20046;-80
2022/06/22 00:04:29;;;;;;;9.23;6.93;;;;;;;;;;5313580;27;20028;-80
2022/06/22 00:07:04;;;;;;;9.90;7.50;;;;;;;;;;5296864;27;20032;-80
2022/06/22 00:09:37;;;;;;;8.80;7.78;;;;;;;;;;5334903;27;20115;-80
2022/06/22 00:12:18;;;;;;;10.85;8.07;;;;;;;;;;5316955;27;20099;-79
2022/06/22 00:14:50;;;;;;;13.63;10.63;;;;;;;;;;5289936;28;20036;-79
2022/06/22 00:17:33;;;;;;;10.82;9.75;;;;;;;;;;5298161;28;20471;-80
2022/06/22 00:20:11;;;;;;;14.50;11.18;;;;;;;;;;5296971;28;20039;-80
2022/06/22 00:22:51;;;;;;;12.90;10.20;;;;;;;;;;5316612;27;20035;-80
2022/06/22 00:25:25;;;;;;;18.80;11.25;;;;;;;;;;5308585;28;20142;-81
2022/06/22 00:28:15;;;;;;;16.10;11.70;;;;;;;;;;5316282;27;20429;-80
2022/06/22 00:30:47;;;;;;;14.38;11.40;;;;;;;;;;5316339;28;20036;-80
2022/06/22 00:33:22;;;;;;;11.50;9.77;;;;;;;;;;5291834;28;20035;-80
2022/06/22 00:35:53;;;;;;;14.90;12.00;;;;;;;;;;5293953;27;20607;-81
2022/06/22 00:38:29;;;;;;;15.90;11.30;;;;;;;;;;5294609;28;20029;-80
2022/06/22 00:41:02;;;;;;;18.20;12.98;;;;;;;;;;5332230;27;20027;-80
2022/06/22 00:43:35;;;;;;;14.70;11.90;;;;;;;;;;5294248;28;20041;-81
2022/06/22 00:46:32;;;;;;;14.20;11.98;;;;;;;;;;5315305;28;20043;-81
2022/06/22 00:49:07;;;;;;;14.25;12.57;;;;;;;;;;5312919;27;20036;-81
2022/06/22 00:51:39;;;;;;;14.43;11.57;;;;;;;;;;5294242;28;20115;-81
2022/06/22 00:54:13;;;;;;;14.25;11.15;;;;;;;;;;5294167;28;20249;-81
2022/06/22 00:56:53;;;;;;;13.10;10.93;;;;;;;;;;5326252;27;20503;-79
2022/06/22 00:59:37;;;;;;;16.23;11.85;;;;;;;;;;5293637;28;20036;-80
2022/06/22 01:02:13;;;;;;;13.70;11.38;;;;;;;;;;5310564;27;20035;-80
2022/06/22 01:04:48;;;;;;;13.45;10.48;;;;;;;;;;5322669;27;20407;-79
2022/06/22 01:07:26;;;;;;;13.73;12.23;;;;;;;;;;5325754;27;20120;-80
2022/06/22 01:10:04;;;;;;;14.05;11.20;;;;;;;;;;5307339;28;20034;-80
2022/06/22 01:12:35;;;;;;;15.38;11.27;;;;;;;;;;5307168;28;20028;-80
2022/06/22 01:15:20;;;;;;;15.73;9.85;;;;;;;;;;5313955;27;20059;-80
2022/06/22 01:17:51;;;;;;;14.65;11.35;;;;;;;;;;5307897;28;20067;-81
2022/06/22 01:20:22;;;;;;;18.45;12.68;;;;;;;;;;5326691;28;20090;-81
2022/06/22 01:23:12;;;;;;;15.13;10.37;;;;;;;;;;5325088;28;20444;-80
2022/06/22 01:25:51;;;;;;;14.20;9.52;;;;;;;;;;5325549;27;20063;-80
2022/06/22 01:28:24;;;;;;;11.05;9.68;;;;;;;;;;5325362;28;20107;-80
2022/06/22 01:31:01;;;;;;;16.13;12.73;;;;;;;;;;5326452;27;20063;-81
2022/06/22 01:33:35;;;;;;;12.32;10.05;;;;;;;;;;5327009;27;20028;-81
2022/06/22 01:36:32;;;;;;;10.45;9.13;;;;;;;;;;5297176;28;20030;-81
2022/06/22 01:39:06;;;;;;;11.75;10.05;;;;;;;;;;5300483;28;20519;-81
2022/06/22 01:41:45;;;;;;;12.52;9.88;;;;;;;;;;5312616;27;20111;-81
2022/06/22 01:44:24;;;;;;;16.55;13.25;;;;;;;;;;5320588;28;20031;-81
2022/06/22 01:47:11;;;;;;;12.82;10.15;;;;;;;;;;5304576;28;20074;-81
2022/06/22 01:49:53;;;;;;;12.63;11.00;;;;;;;;;;5306224;28;20064;-81
2022/06/22 01:52:38;;;;;;;17.70;12.25;;;;;;;;;;5297753;28;20635;-81
2022/06/22 01:55:28;;;;;;;17.42;14.32;;;;;;;;;;5304876;27;20060;-81
2022/06/22 01:58:04;;;;;;;15.95;10.95;;;;;;;;;;5313922;27;20488;-81
2022/06/22 02:00:36;;;;;;;20.40;13.68;;;;;;;;;;5307324;27;20112;-81
2022/06/22 02:03:10;;;;;;;16.98;13.70;;;;;;;;;;5307524;28;20062;-81
2022/06/22 02:05:57;;;;;;;14.23;12.10;;;;;;;;;;5324654;27;20033;-82
2022/06/22 02:08:38;;;;;;;12.40;10.85;;;;;;;;;;5325151;28;20047;-81
2022/06/22 02:11:18;;;;;;;13.27;11.90;;;;;;;;;;5306802;28;20083;-81
2022/06/22 02:14:12;;;;;;;15.23;9.93;;;;;;;;;;5323985;27;20040;-81
2022/06/22 02:16:58;;;;;;;15.68;10.98;;;;;;;;;;5305436;27;20051;-81
2022/06/22 02:19:30;;;;;;;13.77;12.30;;;;;;;;;;5324728;28;20046;-81
2022/06/22 02:22:02;;;;;;;12.00;10.38;;;;;;;;;;5325786;28;20024;-81
2022/06/22 02:24:33;;;;;;;11.43;9.65;;;;;;;;;;5312610;27;20012;-81
2022/06/22 02:27:07;;;;;;;16.13;11.33;;;;;;;;;;5344086;27;20036;-81
2022/06/22 02:29:41;;;;;;;13.68;9.77;;;;;;;;;;5323663;28;20395;-81
2022/06/22 02:32:15;;;;;;;16.33;11.05;;;;;;;;;;5330140;27;20027;-81
2022/06/22 02:34:48;;;;;;;13.65;11.75;;;;;;;;;;5307585;28;20055;-81
2022/06/22 02:37:22;;;;;;;15.45;12.73;;;;;;;;;;5306966;28;20036;-81
2022/06/22 02:39:55;;;;;;;16.65;12.07;;;;;;;;;;5324904;28;20032;-81
2022/06/22 02:45:17;;;;;;;12.60;10.20;;;;;;;;;;5320608;27;20044;-81
2022/06/22 02:47:55;;;;;;;13.50;12.02;;;;;;;;;;5314766;27;20047;-81
2022/06/22 02:50:35;;;;;;;12.25;9.73;;;;;;;;;;5305069;28;20047;-80
2022/06/22 02:53:19;;;;;;;12.48;10.55;;;;;;;;;;5305898;28;20534;-80
2022/06/22 02:55:51;;;;;;;18.13;13.05;;;;;;;;;;5302337;28;20062;-81
2022/06/22 02:58:22;;;;;;;11.10;9.90;;;;;;;;;;5319388;27;20035;-81
2022/06/22 03:00:54;;;;;;;13.87;11.37;;;;;;;;;;5331458;27;20831;-81
2022/06/22 03:03:25;;;;;;;15.40;11.50;;;;;;;;;;5292751;28;20250;-81
2022/06/22 03:05:57;;;;;;;15.55;12.25;;;;;;;;;;5311180;27;20093;-81
2022/06/22 03:08:28;;;;;;;15.65;14.07;;;;;;;;;;5313395;28;20366;-82
2022/06/22 03:11:01;;;;;;;18.08;12.02;;;;;;;;;;5315248;27;20441;-81
2022/06/22 03:13:38;;;;;;;12.75;11.48;;;;;;;;;;5308748;28;20025;-81
2022/06/22 03:16:20;;;;;;;17.38;14.98;;;;;;;;;;5308788;27;20103;-81
2022/06/22 03:18:51;;;;;;;19.38;14.40;;;;;;;;;;5292332;28;20032;-81
2022/06/22 03:21:23;;;;;;;15.55;13.68;;;;;;;;;;5293232;28;20028;-81
2022/06/22 03:24:00;;;;;;;19.13;14.43;;;;;;;;;;5315490;27;20032;-81
2022/06/22 03:26:50;;;;;;;19.10;15.60;;;;;;;;;;5324136;27;20117;-81
2022/06/22 03:29:32;;;;;;;18.13;15.30;;;;;;;;;;5297374;28;20391;-81
2022/06/22 03:32:24;;;;;;;17.80;13.07;;;;;;;;;;5318586;27;20085;-81
2022/06/22 03:35:00;;;;;;;20.10;16.17;;;;;;;;;;5318049;27;20036;-81
2022/06/22 03:37:40;;;;;;;19.80;17.08;;;;;;;;;;5296180;28;20102;-80
2022/06/22 03:40:15;;;;;;;26.25;17.20;;;;;;;;;;5319688;28;20042;-81
2022/06/22 03:42:48;;;;;;;25.95;16.98;;;;;;;;;;5315169;28;20024;-82
2022/06/22 03:45:21;;;;;;;18.08;16.08;;;;;;;;;;5302975;28;20186;-81
2022/06/22 03:48:01;;;;;;;21.40;15.60;;;;;;;;;;5298523;28;20039;-81
2022/06/22 03:50:35;;;;;;;22.02;17.75;;;;;;;;;;5318386;28;20044;-81
2022/06/22 03:53:16;;;;;;;20.73;16.58;;;;;;;;;;5294310;28;20914;-81
2022/06/22 03:55:49;;;;;;;17.98;16.02;;;;;;;;;;5304186;28;20123;-81
2022/06/22 03:58:22;;;;;;;22.85;16.65;;;;;;;;;;5295451;28;20127;-81
2022/06/22 04:00:53;;;;;;;20.95;18.00;;;;;;;;;;5320222;27;20033;-81
2022/06/22 04:03:24;;;;;;;20.05;16.83;;;;;;;;;;5316697;27;20086;-81
2022/06/22 04:05:57;;;;;;;21.60;16.48;;;;;;;;;;5293258;28;20032;-81
2022/06/22 04:08:31;;;;;;;23.02;18.20;;;;;;;;;;5293676;28;20032;-81
2022/06/22 04:11:06;;;;;;;26.10;20.17;;;;;;;;;;5313511;28;20028;-81
2022/06/22 04:13:42;;;;;;;23.00;16.33;;;;;;;;;;5313997;28;20032;-81
2022/06/22 04:16:15;;;;;;;23.48;18.13;;;;;;;;;;5320962;27;20039;-81
2022/06/22 04:18:46;;;;;;;27.73;20.38;;;;;;;;;;5295245;28;20033;-81
2022/06/22 04:21:19;;;;;;;27.58;22.65;;;;;;;;;;5295406;28;20135;-81
2022/06/22 04:23:52;;;;;;;25.65;20.88;;;;;;;;;;5299382;28;20039;-81
2022/06/22 04:26:29;;;;;;;31.40;22.67;;;;;;;;;;5320419;27;20028;-81
2022/06/22 04:29:04;;;;;;;28.90;21.52;;;;;;;;;;5301959;28;20135;-81
2022/06/22 04:31:38;;;;;;;30.10;22.48;;;;;;;;;;5306967;28;20033;-81
2022/06/22 04:34:16;;;;;;;27.13;22.30;;;;;;;;;;5325811;27;20634;-81
2022/06/22 04:36:52;;;;;;;26.55;22.15;;;;;;;;;;5321741;28;20087;-81
2022/06/22 04:39:30;;;;;;;26.83;20.63;;;;;;;;;;5298196;28;20036;-81
2022/06/22 04:42:03;;;;;;;20.98;18.00;;;;;;;;;;5325740;28;20020;-81
2022/06/22 04:44:38;;;;;;;27.50;22.83;;;;;;;;;;5322406;27;20035;-82
2022/06/22 04:47:11;;;;;;;26.20;21.60;;;;;;;;;;5298722;28;20123;-81
2022/06/22 04:49:49;;;;;;;23.17;20.52;;;;;;;;;;5322412;27;20078;-81
2022/06/22 04:52:21;;;;;;;19.92;17.83;;;;;;;;;;5318612;27;20040;-81
2022/06/22 04:54:55;;;;;;;23.23;18.67;;;;;;;;;;5315907;27;20035;-81
2022/06/22 04:57:28;;;;;;;21.95;19.27;;;;;;;;;;5299319;28;20025;-81
2022/06/22 05:00:25;;;;;;;23.58;19.77;;;;;;;;;;5331279;27;20032;-80
2022/06/22 05:02:59;;;;;;;21.77;18.02;;;;;;;;;;5291493;27;20579;-81
2022/06/22 05:05:31;;;;;;;25.15;22.50;;;;;;;;;;5313374;27;20363;-81
2022/06/22 05:08:11;;;;;;;25.77;19.10;;;;;;;;;;5312018;28;20093;-81
2022/06/22 05:10:46;;;;;;;31.38;21.15;;;;;;;;;;5311100;28;20039;-81
2022/06/22 05:13:25;;;;;;;28.20;22.77;;;;;;;;;;5296650;28;20434;-81
2022/06/22 05:15:58;;;;;;;21.20;18.85;;;;;;;;;;5311397;27;20052;-81
2022/06/22 05:18:36;;;;;;;27.05;22.38;;;;;;;;;;5310602;28;20024;-82
2022/06/22 05:21:19;;;;;;;21.90;19.65;;;;;;;;;;5315677;27;20032;-82
2022/06/22 05:23:52;;;;;;;28.17;20.52;;;;;;;;;;5284918;28;20054;-82
2022/06/22 05:26:25;;;;;;;22.13;19.58;;;;;;;;;;5316801;28;20115;-82
2022/06/22 05:29:16;;;;;;;19.67;15.77;;;;;;;;;;5316349;27;20040;-81
2022/06/22 05:31:51;;;;;;;18.45;16.33;;;;;;;;;;5317503;27;20028;-81
2022/06/22 05:34:28;;;;;;;17.80;15.90;;;;;;;;;;5308574;28;20039;-82
2022/06/22 05:37:01;;;;;;;19.25;16.05;;;;;;;;;;5313739;28;20434;-82
2022/06/22 05:39:33;;;;;;;17.27;14.63;;;;;;;;;;5295163;28;20107;-80
2022/06/22 05:42:05;;;;;;;18.20;15.02;;;;;;;;;;5313054;27;20032;-82
2022/06/22 05:44:37;;;;;;;15.20;13.27;;;;;;;;;;5293281;28;20032;-80
2022/06/22 05:47:18;;;;;;;19.92;15.07;;;;;;;;;;5288575;28;20474;-81
2022/06/22 05:49:53;;;;;;;13.50;12.15;;;;;;;;;;5309341;27;20088;-81
2022/06/22 05:52:32;;;;;;;14.45;9.40;;;;;;;;;;5297157;28;20040;-81
2022/06/22 05:55:23;;;;;;;14.40;9.00;;;;;;;;;;5294488;28;20134;-82
2022/06/22 05:58:05;;;;;;;13.40;9.93;;;;;;;;;;5326822;27;20109;-80
2022/06/22 06:00:50;;;;;;;10.00;9.05;;;;;;;;;;5304642;28;20051;-81
2022/06/22 06:03:43;;;;;;;12.32;9.90;;;;;;;;;;5290788;27;20044;-80
2022/06/22 06:06:17;;;;;;;9.10;8.07;;;;;;;;;;5308397;28;20062;-80
2022/06/22 06:08:56;;;;;;;11.25;10.07;;;;;;;;;;5320632;27;20390;-81
2022/06/22 06:11:33;;;;;;;10.27;7.25;;;;;;;;;;5321126;27;20071;-81
2022/06/22 06:14:08;;;;;;;9.13;7.50;;;;;;;;;;5303115;28;20032;-81
2022/06/22 06:16:45;;;;;;;11.77;7.72;;;;;;;;;;5303359;27;20029;-82
2022/06/22 06:19:19;;;;;;;12.38;9.57;;;;;;;;;;5308704;27;20554;-81
2022/06/22 06:21:53;;;;;;;10.75;8.30;;;;;;;;;;5313546;27;20453;-80
2022/06/22 06:24:24;;;;;;;12.45;9.57;;;;;;;;;;5316128;28;20730;-81
2022/06/22 06:30:01;;;;;;;11.75;8.77;;;;;;;;;;5305440;27;20060;-82
2022/06/22 06:32:33;;;;;;;13.45;9.18;;;;;;;;;;5319069;27;20039;-82
2022/06/22 06:35:12;;;;;;;10.80;8.10;;;;;;;;;;5310785;27;20032;-82
2022/06/22 06:37:55;;;;;;;10.43;8.90;;;;;;;;;;5300324;28;20035;-82
2022/06/22 06:40:31;;;;;;;11.55;7.75;;;;;;;;;;5316889;28;20036;-82
2022/06/22 06:43:23;;;;;;;14.13;7.72;;;;;;;;;;5307714;27;20021;-82
2022/06/22 06:45:55;;;;;;;10.82;7.50;;;;;;;;;;5287832;28;20039;-82
2022/06/22 06:48:27;;;;;;;11.75;7.03;;;;;;;;;;5324518;28;20504;-82
2022/06/22 06:51:00;;;;;;;11.68;7.20;;;;;;;;;;5302108;27;20056;-82
2022/06/22 06:53:43;;;;;;;13.05;6.97;;;;;;;;;;5353286;27;20077;-82
2022/06/22 06:56:30;;;;;;;10.88;7.32;;;;;;;;;;5345688;27;20032;-82
2022/06/22 06:59:04;;;;;;;10.05;7.30;;;;;;;;;;5306615;28;20055;-82
2022/06/22 07:01:37;;;;;;;12.60;7.95;;;;;;;;;;5311526;27;20099;-82
2022/06/22 07:04:13;;;;;;;11.00;7.75;;;;;;;;;;5290129;28;20028;-81
2022/06/22 07:06:45;;;;;;;8.13;7.32;;;;;;;;;;5334690;27;21030;-82
2022/06/22 07:09:22;;;;;;;12.65;7.53;;;;;;;;;;5324152;28;20127;-82
2022/06/22 07:11:59;;;;;;;12.73;7.63;;;;;;;;;;5330979;27;20076;-82
2022/06/22 07:14:41;;;;;;;13.45;7.10;;;;;;;;;;5288785;28;20067;-82
2022/06/22 07:17:14;;;;;;;12.05;8.07;;;;;;;;;;5303112;28;20035;-82
2022/06/22 07:19:48;;;;;;;13.35;7.80;;;;;;;;;;5285427;28;20049;-82
2022/06/22 07:22:27;;;;;;;11.95;7.18;;;;;;;;;;5305521;28;20039;-82
2022/06/22 07:25:06;;;;;;;9.73;6.95;;;;;;;;;;5323679;28;20138;-82
2022/06/22 07:27:44;;;;;;;8.52;6.25;;;;;;;;;;5321448;28;20430;-82
2022/06/22 07:30:24;;;;;;;8.88;6.90;;;;;;;;;;5283451;27;20047;-83
2022/06/22 07:33:06;;;;;;;13.85;7.35;;;;;;;;;;5302883;28;20036;-82
2022/06/22 07:35:41;;;;;;;12.63;7.88;;;;;;;;;;5303454;28;20016;-82
2022/06/22 07:38:31;;;;;;;10.32;7.82;;;;;;;;;;5321371;28;20028;-82
2022/06/22 07:41:22;;;;;;;11.10;7.82;;;;;;;;;;5339798;27;20032;-82
2022/06/22 07:43:56;;;;;;;14.65;8.20;;;;;;;;;;5323549;28;20492;-82
2022/06/22 07:46:30;;;;;;;14.25;8.35;;;;;;;;;;5324386;28;20019;-82
2022/06/22 07:49:20;;;;;;;12.38;7.82;;;;;;;;;;5317930;27;20039;-82
2022/06/22 07:51:52;;;;;;;8.07;7.28;;;;;;;;;;5302468;28;20465;-82
2022/06/22 07:54:29;;;;;;;12.10;6.72;;;;;;;;;;5292094;28;20021;-82
2022/06/22 07:57:12;;;;;;;14.88;6.32;;;;;;;;;;5301685;28;20030;-82
2022/06/22 07:59:47;;;;;;;10.05;7.10;;;;;;;;;;5315265;27;20119;-83
2022/06/22 08:02:18;;;;;;;;;;;;;;;;;;5352129;27;20452;-82
2022/06/22 08:04:56;;;;;;;12.23;7.75;;;;;;;;;;5349640;27;19955;-82
2022/06/22 08:07:36;;;;;;;11.38;7.53;;;;;;;;;;5322669;27;20058;-81
2022/06/22 08:10:33;;;;;;;10.32;7.20;;;;;;;;;;5314893;27;20039;-82
2022/06/22 08:13:07;;;;;;;11.50;7.60;;;;;;;;;;5303862;28;20072;-81
2022/06/22 08:15:44;;;;;;;11.10;8.00;;;;;;;;;;5300005;28;20036;-82
2022/06/22 08:18:16;;;;;;;14.73;7.10;;;;;;;;;;5315449;27;20456;-82
2022/06/22 08:20:49;;;;;;;12.63;7.05;;;;;;;;;;5315478;27;20119;-82
2022/06/22 08:23:23;;;;;;;11.77;7.05;;;;;;;;;;5315324;27;20047;-82
2022/06/22 08:25:56;;;;;;;13.13;6.78;;;;;;;;;;5325670;27;20084;-83
2022/06/22 08:28:29;;;;;;;10.07;6.97;;;;;;;;;;5313473;27;20028;-80
2022/06/22 08:31:00;;;;;;;11.20;6.32;;;;;;;;;;5313813;27;20031;-80
2022/06/22 08:33:46;;;;;;;9.33;6.07;;;;;;;;;;5306514;27;20465;-80
2022/06/22 08:36:34;;;;;;;12.75;5.75;;;;;;;;;;5316569;27;20484;-80
2022/06/22 08:39:16;;;;;;;6.10;3.97;;;;;;;;;;5316832;27;20052;-80
2022/06/22 08:41:57;;;;;;;6.50;4.70;;;;;;;;;;5323651;27;20155;-80
2022/06/22 08:44:49;;;;;;;9.05;4.78;;;;;;;;;;5316923;27;20052;-80
2022/06/22 08:47:26;;;;;;;7.00;4.00;;;;;;;;;;5297199;27;20036;-80
2022/06/22 08:50:12;;;;;;;11.35;3.97;;;;;;;;;;5294715;27;20078;-80
2022/06/22 08:53:13;;;;;;;9.68;3.92;;;;;;;;;;5326088;27;20034;-80
2022/06/22 08:56:02;;;;;;;6.60;3.03;;;;;;;;;;5316175;27;20539;-80
2022/06/22 08:58:46;;;;;;;8.70;2.58;;;;;;;;;;5331360;27;20412;-80
2022/06/22 09:01:20;;;;;;;8.82;3.10;;;;;;;;;;5335669;27;20111;-80
2022/06/22 09:03:57;;;;;;;7.63;2.63;;;;;;;;;;5315464;28;20032;-80
2022/06/22 09:06:47;;;;;;;8.60;2.58;;;;;;;;;;5328554;27;20031;-80
2022/06/22 09:09:37;;;;;;;7.63;2.10;;;;;;;;;;5353419;27;20020;-80
2022/06/22 09:12:18;;;;;;;6.18;2.10;;;;;;;;;;5324460;27;20039;-80
2022/06/22 09:15:15;;;;;;;4.63;1.95;;;;;;;;;;5319304;27;20023;-81
2022/06/22 09:18:05;;;;;;;5.00;2.20;;;;;;;;;;5338406;27;20048;-80
2022/06/22 09:21:02;;;;;;;6.28;2.15;;;;;;;;;;5327548;27;20474;-80
2022/06/22 09:23:37;;;;;;;3.92;2.33;;;;;;;;;;5296600;27;20093;-80
2022/06/22 09:26:08;;;;;;;5.07;2.03;;;;;;;;;;5348879;27;20030;-81
2022/06/22 09:28:55;;;;;;;4.40;2.30;;;;;;;;;;5316517;27;20289;-80
2022/06/22 09:31:45;;;;;;;4.57;2.20;;;;;;;;;;5316425;27;20366;-80
2022/06/22 09:34:35;;;;;;;7.05;2.85;;;;;;;;;;5325964;27;20032;-80
2022/06/22 09:37:09;;;;;;;6.93;2.30;;;;;;;;;;5326861;27;20493;-79
2022/06/22 09:39:48;;;;;;;6.32;2.22;;;;;;;;;;5321281;27;20039;-79
2022/06/22 09:42:19;;;;;;;6.65;2.38;;;;;;;;;;5315191;27;20024;-80
2022/06/22 09:45:03;;;;;;;8.15;2.20;;;;;;;;;;5314511;27;20077;-80
2022/06/22 09:47:41;;;;;;;6.18;2.15;;;;;;;;;;5318319;27;20380;-79
2022/06/22 09:50:20;;;;;;;5.95;2.10;;;;;;;;;;5295681;27;20139;-81
2022/06/22 09:52:58;;;;;;;5.03;1.80;;;;;;;;;;5304119;27;20028;-80
2022/06/22 09:58:38;;;;;;;4.55;1.63;;;;;;;;;;5312727;27;20495;-80
2022/06/22 10:01:31;;;;;;;5.50;1.75;;;;;;;;;;5327773;27;20028;-81
2022/06/22 10:04:05;;;;;;;6.45;1.75;;;;;;;;;;5333803;27;20042;-83
2022/06/22 10:06:36;;;;;;;2.35;1.50;;;;;;;;;;5299679;27;20023;-80
2022/06/22 10:09:08;;;;;;;3.38;1.42;;;;;;;;;;5328948;27;20393;-80
2022/06/22 10:11:39;;;;;;;4.47;1.37;;;;;;;;;;5318991;27;20582;-80
2022/06/22 10:14:16;;;;;;;4.63;1.60;;;;;;;;;;5325439;27;20397;-80
2022/06/22 10:17:06;;;;;;;5.22;1.58;;;;;;;;;;5325300;27;20135;-79
2022/06/22 10:19:54;;;;;;;6.30;1.63;;;;;;;;;;5309367;27;20115;-80
2022/06/22 10:22:48;;;;;;;4.28;1.42;;;;;;;;;;5297008;27;20154;-80
2022/06/22 10:25:22;;;;;;;3.53;1.40;;;;;;;;;;5291788;27;20377;-80
2022/06/22 10:28:03;;;;;;;6.78;1.50;;;;;;;;;;5324438;27;20215;-79
2022/06/22 10:30:41;;;;;;;4.30;1.45;;;;;;;;;;5293534;27;20544;-79
2022/06/22 10:33:16;;;;;;;3.15;1.27;;;;;;;;;;5289164;27;20039;-80
2022/06/22 10:35:50;;;;;;;3.58;1.40;;;;;;;;;;5317888;27;20028;-79
2022/06/22 10:38:21;;;;;;;3.38;1.92;;;;;;;;;;5325016;27;20039;-79
2022/06/22 10:46:45;;;;;;;7.13;1.70;;;;;;;;;;5327610;27;20036;-80
2022/06/22 10:49:25;;;;;;;4.95;1.42;;;;;;;;;;5295617;27;20048;-80
2022/06/22 10:52:15;;;;;;;4.03;1.83;;;;;;;;;;5317416;27;20036;-80
2022/06/22 10:55:05;;;;;;;4.10;1.30;;;;;;;;;;5296673;27;20058;-80
2022/06/22 10:57:51;;;;;;;3.60;1.60;;;;;;;;;;5330707;27;20156;-80
2022/06/22 11:00:31;;;;;;;3.33;1.73;;;;;;;;;;5312677;27;20076;-80
2022/06/22 11:03:03;;;;;;;4.10;1.70;;;;;;;;;;5305406;28;20035;-79
2022/06/22 11:05:52;;;;;;;6.43;1.70;;;;;;;;;;5318666;27;20027;-79
2022/06/22 11:08:42;;;;;;;3.72;1.50;;;;;;;;;;5336463;27;20023;-80
2022/06/22 11:11:23;;;;;;;3.60;1.55;;;;;;;;;;5340156;27;20024;-79
2022/06/22 11:14:00;;;;;;;4.88;1.52;;;;;;;;;;5338300;27;20023;-80
2022/06/22 11:16:50;;;;;;;4.40;1.20;;;;;;;;;;5340173;27;20028;-78
2022/06/22 11:19:42;;;;;;;5.43;1.52;;;;;;;;;;5303113;27;20508;-79
2022/06/22 11:22:16;;;;;;;3.63;1.50;;;;;;;;;;5300720;28;20052;-79
2022/06/22 11:25:15;;;;;;;4.70;1.50;;;;;;;;;;5313481;28;20024;-80
2022/06/22 11:30:56;;;;;;;4.35;1.40;;;;;;;;;;5303584;28;20024;-80
2022/06/22 11:33:46;;;;;;;4.63;1.83;;;;;;;;;;5323465;27;20118;-80
2022/06/22 11:36:29;;;;;;;3.28;1.20;;;;;;;;;;5305248;28;20495;-79
2022/06/22 11:39:03;;;;;;;4.15;1.33;;;;;;;;;;5323264;28;20031;-79
2022/06/22 11:41:44;;;;;;;3.15;1.48;;;;;;;;;;5332901;27;20021;-80
2022/06/22 11:44:30;;;;;;;2.20;1.20;;;;;;;;;;5333279;27;20036;-81
2022/06/22 11:47:13;;;;;;;4.10;1.42;;;;;;;;;;5289534;28;20439;-79
2022/06/22 11:50:03;;;;;;;3.95;1.40;;;;;;;;;;5321725;28;20052;-81
2022/06/22 11:52:44;;;;;;;7.53;1.40;;;;;;;;;;5287979;28;20408;-80
2022/06/22 11:55:30;;;;;;;5.57;1.60;;;;;;;;;;5305999;28;20112;-81
2022/06/22 11:58:20;;;;;;;3.92;1.30;;;;;;;;;;5313955;27;20503;-81
2022/06/22 12:01:12;;;;;;;2.92;1.30;;;;;;;;;;5329251;27;20107;-81
2022/06/22 12:04:02;;;;;;;4.45;1.38;;;;;;;;;;5319360;27;20531;-81
2022/06/22 12:06:34;;;;;;;3.70;1.27;;;;;;;;;;5328977;27;20026;-81
2022/06/22 12:09:23;;;;;;;4.80;1.40;;;;;;;;;;5327600;27;20029;-81
2022/06/22 12:12:05;;;;;;;9.57;1.58;;;;;;;;;;5321998;27;20049;-81
2022/06/22 12:15:05;;;;;;;4.43;1.38;;;;;;;;;;5320368;28;20037;-81
2022/06/22 12:17:42;;;;;;;6.07;1.27;;;;;;;;;;5305980;28;20029;-82
2022/06/22 12:20:13;;;;;;;2.78;1.13;;;;;;;;;;5314905;27;20028;-81
2022/06/22 12:22:45;;;;;;;4.10;1.40;;;;;;;;;;5334005;27;20118;-81
2022/06/22 12:25:19;;;;;;;3.10;1.30;;;;;;;;;;5300473;28;20031;-81
2022/06/22 12:28:05;;;;;;;5.38;1.20;;;;;;;;;;5338099;27;20032;-81
2022/06/22 12:30:48;;;;;;;4.63;1.35;;;;;;;;;;5305941;28;20048;-81
2022/06/22 12:33:22;;;;;;;2.40;0.73;;;;;;;;;;5305761;28;20036;-81
2022/06/22 12:35:58;;;;;;;3.47;0.97;;;;;;;;;;5304527;28;20412;-81
2022/06/22 12:38:34;;;;;;;2.05;0.63;;;;;;;;;;5307524;28;20419;-81
2022/06/22 12:41:12;;;;;;;2.55;0.70;;;;;;;;;;5308170;28;20380;-81
2022/06/22 12:43:52;;;;;;;2.45;0.82;;;;;;;;;;5340816;27;20043;-81
2022/06/22 12:46:50;;;;;;;3.97;0.80;;;;;;;;;;5308215;28;20065;-81
2022/06/22 12:49:35;;;;;;;1.85;0.90;;;;;;;;;;5302374;27;20048;-82
2022/06/22 12:52:15;;;;;;;2.55;1.10;;;;;;;;;;5287961;28;20033;-81
2022/06/22 12:54:51;;;;;;;6.80;1.30;;;;;;;;;;5286419;28;20119;-81
2022/06/22 12:57:28;;;;;;;1.50;0.85;;;;;;;;;;5319284;28;20035;-81
2022/06/22 13:00:12;;;;;;;2.85;0.95;;;;;;;;;;5333810;27;20081;-81
2022/06/22 13:02:45;;;;;;;2.00;0.90;;;;;;;;;;5307296;28;20036;-82
2022/06/22 13:05:18;;;;;;;4.38;1.13;;;;;;;;;;5306820;27;20135;-83
2022/06/22 13:07:57;;;;;;;2.92;1.00;;;;;;;;;;5324763;27;20107;-83
2022/06/22 13:10:34;;;;;;;3.42;1.00;;;;;;;;;;5322834;27;20028;-82
2022/06/22 13:13:17;;;;;;;2.25;1.10;;;;;;;;;;5325165;28;20031;-82
2022/06/22 13:15:54;;;;;;;3.25;0.90;;;;;;;;;;5309007;27;20101;-82
2022/06/22 13:18:30;;;;;;;2.58;0.93;;;;;;;;;;5285695;28;20496;-82
2022/06/22 13:21:04;;;;;;;1.90;1.00;;;;;;;;;;5292681;28;20520;-82
2022/06/22 13:23:55;;;;;;;4.35;1.00;;;;;;;;;;5304856;27;20037;-82
2022/06/22 13:26:45;;;;;;;2.10;1.08;;;;;;;;;;5282538;28;20119;-82
2022/06/22 13:29:27;;;;;;;4.45;1.10;;;;;;;;;;5335494;27;20036;-82
2022/06/22 13:32:00;;;;;;;2.30;0.90;;;;;;;;;;5310988;27;20051;-81
2022/06/22 13:34:38;;;;;;;4.55;1.33;;;;;;;;;;5323405;27;20036;-82
2022/06/22 13:37:28;;;;;;;4.20;0.70;;;;;;;;;;5307057;28;20027;-82
2022/06/22 13:40:26;;;;;;;2.67;0.90;;;;;;;;;;5340831;27;20036;-82
2022/06/22 13:43:09;;;;;;;2.88;0.73;;;;;;;;;;5311236;27;20046;-81
2022/06/22 13:45:50;;;;;;;4.50;0.93;;;;;;;;;;5342544;27;20165;-82
2022/06/22 13:48:53;;;;;;;3.00;0.98;;;;;;;;;;5318547;27;20025;-82
2022/06/22 13:51:46;;;;;;;2.10;0.93;;;;;;;;;;5271625;27;20042;-82
2022/06/22 13:54:27;;;;;;;4.30;1.40;;;;;;;;;;5320727;28;20039;-82
2022/06/22 13:57:01;;;;;;;3.15;0.90;;;;;;;;;;5325185;27;20063;-81
2022/06/22 13:59:38;;;;;;;3.33;1.10;;;;;;;;;;5317885;27;20381;-81
2022/06/22 14:02:25;;;;;;;4.95;0.90;;;;;;;;;;5285676;28;20107;-82
2022/06/22 14:05:10;;;;;;;2.85;0.90;;;;;;;;;;5303618;28;20078;-81
2022/06/22 14:07:47;;;;;;;2.15;0.80;;;;;;;;;;5304574;28;20449;-81
2022/06/22 14:10:33;;;;;;;3.28;1.10;;;;;;;;;;5296522;27;20176;-81
2022/06/22 14:13:19;;;;;;;3.53;0.93;;;;;;;;;;5331775;27;20036;-82
2022/06/22 14:16:14;;;;;;;5.82;1.00;;;;;;;;;;5306092;28;20017;-82
2022/06/22 14:18:59;;;;;;;4.25;1.17;;;;;;;;;;5277008;28;20051;-82
2022/06/22 14:21:39;;;;;;;2.25;1.00;;;;;;;;;;5301182;28;20035;-82
2022/06/22 14:24:13;;;;;;;2.03;1.00;;;;;;;;;;5319878;27;20400;-82
2022/06/22 14:26:45;;;;;;;5.10;1.00;;;;;;;;;;5302403;28;20115;-82
2022/06/22 14:29:29;;;;;;;5.27;1.40;;;;;;;;;;5317300;28;20043;-82
2022/06/22 14:32:17;;;;;;;4.75;1.38;;;;;;;;;;5301613;27;20090;-81
2022/06/22 14:34:49;;;;;;;8.57;1.35;;;;;;;;;;5315366;28;20055;-82
2022/06/22 14:37:24;;;;;;;3.75;1.40;;;;;;;;;;5325076;28;20047;-82
2022/06/22 14:40:18;;;;;;;6.15;1.30;;;;;;;;;;5324445;28;20379;-82
2022/06/22 14:43:12;;;;;;;1.83;1.00;;;;;;;;;;5307951;28;20028;-82
2022/06/22 14:45:46;;;;;;;2.75;1.10;;;;;;;;;;5275205;27;20530;-82
2022/06/22 14:48:22;;;;;;;2.85;1.10;;;;;;;;;;5297107;27;20024;-81
2022/06/22 14:51:12;;;;;;;6.00;1.27;;;;;;;;;;5313581;27;20043;-82
2022/06/22 14:53:52;;;;;;;6.50;1.20;;;;;;;;;;5323781;27;20119;-81
2022/06/22 14:56:28;;;;;;;3.92;1.05;;;;;;;;;;5297649;27;20032;-81
2022/06/22 14:59:09;;;;;;;5.00;1.13;;;;;;;;;;5312352;27;20466;-82
2022/06/22 15:01:42;;;;;;;3.00;1.48;;;;;;;;;;5321329;27;20032;-82
2022/06/22 15:04:23;;;;;;;6.55;1.23;;;;;;;;;;5327405;27;20046;-82
2022/06/22 15:07:05;;;;;;;2.03;1.20;;;;;;;;;;5332794;27;20680;-81
2022/06/22 15:09:55;;;;;;;4.68;1.40;;;;;;;;;;5299305;28;20028;-80
2022/06/22 15:15:26;;;;;;;3.92;0.98;;;;;;;;;;5322679;28;20028;-80
2022/06/22 15:17:57;;;;;;;5.78;1.15;;;;;;;;;;5311090;27;20055;-80
2022/06/22 15:20:29;;;;;;;4.17;1.20;;;;;;;;;;5335457;27;20028;-80
2022/06/22 15:23:05;;;;;;;4.97;1.10;;;;;;;;;;5301506;28;20031;-80
2022/06/22 15:25:39;;;;;;;4.35;1.40;;;;;;;;;;5318432;27;20258;-80
2022/06/22 15:28:16;;;;;;;4.57;0.90;;;;;;;;;;5303721;27;20445;-80
2022/06/22 15:30:53;;;;;;;3.55;1.00;;;;;;;;;;5302372;28;20409;-80
2022/06/22 15:33:31;;;;;;;1.65;0.90;;;;;;;;;;5310403;28;20016;-81
2022/06/22 15:36:12;;;;;;;9.18;1.10;;;;;;;;;;5309657;27;20032;-80
2022/06/22 15:38:48;;;;;;;3.53;1.20;;;;;;;;;;5282780;28;20132;-80
2022/06/22 15:41:25;;;;;;;3.40;1.25;;;;;;;;;;5312175;28;20028;-81
2022/06/22 15:43:56;;;;;;;5.80;1.05;;;;;;;;;;5321659;27;20112;-80
2022/06/22 15:46:31;;;;;;;2.53;1.10;;;;;;;;;;5336926;27;20107;-81
2022/06/22 15:49:08;;;;;;;4.45;1.20;;;;;;;;;;5290452;28;20335;-81
2022/06/22 15:51:44;;;;;;;2.65;0.82;;;;;;;;;;5281017;28;20666;-81
2022/06/22 15:54:15;;;;;;;;;;;;;;;;;;5303875;28;20036;-81
2022/06/22 15:57:02;;;;;;;3.23;0.93;;;;;;;;;;5284943;28;19923;-81
2022/06/22 15:59:52;;;;;;;3.35;0.90;;;;;;;;;;5282278;28;20287;-80
2022/06/22 16:02:26;;;;;;;4.22;1.00;;;;;;;;;;5295969;28;20107;-80
2022/06/22 16:05:00;;;;;;;3.10;0.93;;;;;;;;;;5300000;28;20083;-81